Time;durP1;ratioP1;P1;durP2;ratioP2;P2;SDS_P1;SDS_P2;PMS_P1;PMS_P2;Temp;Humidity;BMP_temperature;BMP_pressure;BME280_temperature;BME280_humidity;BME280_pressure;Samples;Min_cycle;Max_cycle;Signal;HPM_P1;HPM_P2
2023/01/12 00:01:22;;;;;;;20.00;3.75;;;;;;;;;;5085647;28;20428;-76
2023/01/12 00:03:49;;;;;;;20.10;4.25;;;;;;;;;;5090283;28;20451;-77
2023/01/12 00:06:15;;;;;;;23.33;4.53;;;;;;;;;;5081733;28;20411;-76
2023/01/12 00:08:42;;;;;;;21.75;4.50;;;;;;;;;;5078503;28;20418;-77
2023/01/12 00:11:08;;;;;;;24.88;5.10;;;;;;;;;;5072278;28;20414;-76
2023/01/12 00:13:34;;;;;;;19.17;4.28;;;;;;;;;;5089861;28;20833;-76
2023/01/12 00:16:34;;;;;;;24.50;4.03;;;;;;;;;;5089386;28;20425;-77
2023/01/12 00:18:53;;;;;;;27.33;4.40;;;;;;;;;;5087255;28;20585;-77
2023/01/12 00:21:19;;;;;;;26.17;5.17;;;;;;;;;;5090918;28;20429;-76
2023/01/12 00:23:45;;;;;;;26.70;4.63;;;;;;;;;;5089471;28;20456;-76
2023/01/12 00:26:11;;;;;;;26.50;4.40;;;;;;;;;;5088401;28;20948;-77
2023/01/12 00:28:38;;;;;;;23.00;4.63;;;;;;;;;;5088514;28;20421;-76
2023/01/12 00:31:09;;;;;;;23.23;4.70;;;8.50;99.90;;;;;;5090743;28;21015;-76
2023/01/12 00:33:35;;;;;;;25.50;5.05;;;;;;;;;;5090031;28;20429;-76
2023/01/12 00:36:03;;;;;;;31.00;5.03;;;;;;;;;;5088122;28;20527;-76
2023/01/12 00:38:29;;;;;;;25.67;5.25;;;;;;;;;;5089159;28;20423;-76
2023/01/12 00:40:55;;;;;;;23.73;4.35;;;;;;;;;;5070484;28;20422;-76
2023/01/12 00:46:08;;;;;;;17.60;3.60;;;;;;;;;;5085688;28;20454;-76
2023/01/12 00:48:34;;;;;;;18.60;4.00;;;;;;;;;;5074009;28;20402;-77
2023/01/12 00:51:02;;;;;;;16.85;3.28;;;;;;;;;;5072874;28;20452;-76
2023/01/12 00:53:28;;;;;;;15.40;3.58;;;;;;;;;;5084340;28;20473;-77
2023/01/12 00:55:59;;;;;;;15.13;3.43;;;;;;;;;;5086182;28;20492;-77
2023/01/12 00:58:27;;;;;;;18.50;3.45;;;7.70;99.90;;;;;;5090505;28;20433;-77
2023/01/12 01:00:53;;;;;;;14.85;3.25;;;;;;;;;;5071571;28;20989;-76
2023/01/12 01:03:19;;;;;;;20.13;3.78;;;;;;;;;;5040068;28;20442;-76
2023/01/12 01:05:45;;;;;;;21.80;4.45;;;;;;;;;;5071735;28;20424;-77
2023/01/12 01:08:11;;;;;;;25.20;4.03;;;;;;;;;;5070445;28;20478;-77
2023/01/12 01:10:38;;;;;;;27.52;4.20;;;;;;;;;;5072043;28;20425;-78
2023/01/12 01:13:04;;;;;;;20.50;4.60;;;;;;;;;;5070285;28;20923;-76
2023/01/12 01:15:30;;;;;;;22.08;4.70;;;;;;;;;;5077140;28;20419;-77
2023/01/12 01:17:56;;;;;;;23.02;4.90;;;;;;;;;;5089923;28;20822;-77
2023/01/12 01:20:22;;;;;;;27.48;4.70;;;;;;;;;;5094055;28;20394;-76
2023/01/12 01:22:48;;;;;;;20.88;5.05;;;;;;;;;;5089286;28;20493;-77
2023/01/12 01:25:14;;;;;;;28.20;4.70;;;;;;;;;;5076573;28;20752;-77
2023/01/12 01:27:40;;;;;;;24.17;4.53;;;;;;;;;;5076202;28;20405;-77
2023/01/12 01:30:06;;;;;;;23.58;4.78;;;;;;;;;;5070361;28;20429;-77
2023/01/12 01:32:33;;;;;;;23.35;4.28;;;;;;;;;;5091134;28;20413;-77
2023/01/12 01:34:59;;;;;;;24.80;5.03;;;;;;;;;;5047227;28;20481;-77
2023/01/12 01:37:25;;;;;;;25.15;4.32;;;;;;;;;;5067403;28;20530;-77
2023/01/12 01:39:51;;;;;;;25.70;4.55;;;;;;;;;;5066127;28;20428;-77
2023/01/12 01:42:26;;;;;;;18.98;4.03;;;;;;;;;;5091216;28;20996;-77
2023/01/12 01:44:55;;;;;;;25.75;4.43;;;8.20;99.90;;;;;;5091396;28;20475;-77
2023/01/12 01:47:50;;;;;;;25.65;5.10;;;;;;;;;;5094022;28;20418;-77
2023/01/12 01:50:19;;;;;;;20.05;4.20;;;;;;;;;;5105173;28;20406;-77
2023/01/12 01:52:50;;;;;;;20.33;4.75;;;;;;;;;;5076634;28;20424;-77
2023/01/12 01:55:24;;;;;;;23.05;4.55;;;;;;;;;;5091964;28;20901;-77
2023/01/12 01:57:53;;;;;;;26.15;4.72;;;;;;;;;;5064994;28;20475;-77
2023/01/12 02:00:19;;;;;;;25.67;5.20;;;;;;;;;;5075026;28;20402;-77
2023/01/12 02:02:46;;;;;;;26.08;4.78;;;;;;;;;;5093331;28;20409;-77
2023/01/12 02:05:17;;;;;;;28.25;5.13;;;8.50;99.90;;;;;;5092857;28;20905;-77
2023/01/12 02:07:44;;;;;;;30.85;5.15;;;;;;;;;;5075556;28;20438;-77
2023/01/12 02:10:12;;;;;;;26.63;5.00;;;;;;;;;;5067336;28;20514;-77
2023/01/12 02:18:34;;;;;;;25.73;4.72;;;;;;;;;;5088490;28;20414;-77
2023/01/12 02:21:00;;;;;;;27.50;5.40;;;;;;;;;;5066557;28;20507;-77
2023/01/12 02:23:26;;;;;;;28.75;5.00;;;;;;;;;;5070012;28;20445;-77
2023/01/12 02:26:05;;;;;;;29.23;4.83;;;;;;;;;;5090682;28;20471;-77
2023/01/12 02:29:08;;;;;;;31.02;5.10;;;8.50;99.90;;;;;;5092708;28;20894;-78
2023/01/12 02:32:00;;;;;;;27.30;5.15;;;8.10;99.90;;;;;;5062559;28;20419;-78
2023/01/12 02:34:33;;;;;;;28.45;5.72;;;;;;;;;;5057216;28;20600;-78
2023/01/12 02:37:31;;;;;;;27.83;4.55;;;8.50;99.90;;;;;;5071839;28;20442;-79
2023/01/12 02:40:02;;;;;;;25.90;4.60;;;;;;;;;;5073583;28;20417;-79
2023/01/12 02:42:42;;;;;;;22.27;4.80;;;;;;;;;;5092613;28;20947;-79
2023/01/12 02:45:20;;;;;;;22.23;5.13;;;;;;;;;;5091452;28;20538;-78
2023/01/12 02:47:52;;;;;;;24.40;4.85;;;;;;;;;;5090742;28;20476;-78
2023/01/12 02:50:59;;;;;;;30.30;5.97;;;8.40;99.90;;;;;;5073013;28;20423;-78
2023/01/12 02:53:35;;;;;;;30.63;5.72;;;;;;;;;;5089535;28;20413;-78
2023/01/12 02:56:05;;;;;;;26.85;5.43;;;8.20;99.90;;;;;;5091018;28;20414;-78
2023/01/12 02:58:32;;;;;;;28.20;5.93;;;;;;;;;;5086843;28;20426;-78
2023/01/12 03:00:59;;;;;;;26.83;5.53;;;;;;;;;;5089994;28;20414;-79
2023/01/12 03:03:26;;;;;;;30.65;6.18;;;;;;;;;;5091627;28;20812;-79
2023/01/12 03:05:57;;;;;;;28.88;5.60;;;9.00;99.90;;;;;;5091939;28;20398;-79
2023/01/12 03:08:27;;;;;;;27.95;5.53;;;;;;;;;;5090414;28;20421;-79
2023/01/12 03:11:07;;;;;;;25.75;5.15;;;8.70;99.90;;;;;;5089128;28;20418;-79
2023/01/12 03:13:35;;;;;;;26.10;5.40;;;;;;;;;;5073387;28;20427;-79
2023/01/12 03:16:02;;;;;;;30.55;5.65;;;;;;;;;;5071497;28;20471;-79
2023/01/12 03:18:43;;;;;;;27.13;5.57;;;8.70;99.90;;;;;;5083279;28;20422;-79
2023/01/12 03:21:19;;;;;;;29.17;6.13;;;8.30;99.90;;;;;;5087370;28;20414;-80
2023/01/12 03:23:51;;;;;;;29.37;5.97;;;;;;;;;;5091623;28;20455;-80
2023/01/12 03:26:22;;;;;;;25.52;5.43;;;;;;;;;;5089865;28;20928;-80
2023/01/12 03:28:52;;;;;;;27.08;6.05;;;;;;;;;;5071769;28;20799;-80
2023/01/12 03:31:19;;;;;;;27.00;6.50;;;;;;;;;;5091472;28;20410;-80
2023/01/12 03:33:45;;;;;;;25.83;5.40;;;;;;;;;;5075195;28;20676;-80
2023/01/12 03:36:23;;;;;;;24.30;5.22;;;;;;;;;;5072578;28;20972;-79
2023/01/12 03:39:05;;;;;;;26.45;5.05;;;;;;;;;;5088641;28;20559;-80
2023/01/12 03:41:53;;;;;;;18.90;4.32;;;;;;;;;;5079050;28;20417;-79
2023/01/12 03:44:38;;;;;;;26.88;5.28;;;;;;;;;;5071832;28;20470;-77
2023/01/12 03:47:08;;;;;;;22.83;5.18;;;;;;;;;;5073836;28;20455;-77
2023/01/12 03:49:46;;;;;;;24.13;5.00;;;8.80;99.90;;;;;;5090920;28;20445;-78
2023/01/12 03:52:12;;;;;;;27.30;5.50;;;;;;;;;;5088761;28;20513;-77
2023/01/12 03:54:40;;;;;;;25.25;5.15;;;8.90;99.90;;;;;;5072719;28;20413;-77
2023/01/12 03:57:07;;;;;;;25.40;5.10;;;;;;;;;;5089507;28;20487;-77
2023/01/12 03:59:34;;;;;;;25.67;4.87;;;;;;;;;;5074434;28;20482;-77
2023/01/12 04:02:00;;;;;;;29.00;5.32;;;;;;;;;;5074878;28;20916;-78
2023/01/12 04:04:26;;;;;;;25.17;4.80;;;;;;;;;;5091503;28;20437;-77
2023/01/12 04:06:52;;;;;;;22.42;5.20;;;;;;;;;;5086719;28;20465;-77
2023/01/12 04:09:18;;;;;;;23.35;4.55;;;;;;;;;;5073821;28;20498;-77
2023/01/12 04:14:47;;;;;;;20.00;4.60;;;;;;;;;;5069361;28;20423;-77
2023/01/12 04:17:13;;;;;;;22.88;4.63;;;;;;;;;;5059341;28;20497;-77
2023/01/12 04:19:39;;;;;;;20.10;4.43;;;;;;;;;;5072866;28;20418;-77
2023/01/12 04:24:50;;;;;;;16.48;4.03;;;;;;;;;;5077815;28;20460;-77
2023/01/12 04:27:17;;;;;;;11.65;3.60;;;;;;;;;;5072986;28;20410;-78
2023/01/12 04:29:44;;;;;;;16.30;3.88;;;;;;;;;;5090902;28;20401;-77
2023/01/12 04:32:12;;;;;;;14.00;3.30;;;;;;;;;;5074149;28;20425;-78
2023/01/12 04:34:39;;;;;;;13.00;3.53;;;;;;;;;;5088513;28;20435;-77
2023/01/12 04:37:05;;;;;;;9.70;2.72;;;;;;;;;;5087617;28;20463;-78
2023/01/12 04:39:31;;;;;;;11.53;2.90;;;;;;;;;;5074685;28;20473;-78
2023/01/12 04:41:57;;;;;;;10.68;2.80;;;;;;;;;;5069945;28;20416;-78
2023/01/12 04:44:23;;;;;;;14.27;2.95;;;;;;;;;;5068509;28;20418;-77
2023/01/12 04:46:49;;;;;;;14.20;3.20;;;8.60;99.90;;;;;;5088831;28;20421;-77
2023/01/12 04:49:16;;;;;;;11.73;2.90;;;;;;;;;;5072586;28;20421;-77
2023/01/12 04:51:42;;;;;;;10.85;2.67;;;;;;;;;;5087041;28;20422;-77
2023/01/12 04:54:09;;;;;;;12.20;2.78;;;;;;;;;;5074802;28;20420;-77
2023/01/12 04:56:35;;;;;;;12.70;3.20;;;;;;;;;;5087472;28;21303;-77
2023/01/12 04:59:01;;;;;;;14.05;3.05;;;;;;;;;;5073550;28;20993;-77
2023/01/12 05:01:28;;;;;;;10.98;2.85;;;;;;;;;;5072791;28;20488;-78
2023/01/12 05:03:56;;;;;;;10.18;2.80;;;8.80;99.90;;;;;;5089762;28;20441;-77
2023/01/12 05:06:23;;;;;;;9.18;2.42;;;;;;;;;;5070799;28;20462;-78
2023/01/12 05:11:34;;;;;;;8.45;2.28;;;;;;;;;;5088947;28;20884;-78
2023/01/12 05:14:00;;;;;;;7.75;2.47;;;;;;;;;;5090068;28;20401;-78
2023/01/12 05:16:26;;;;;;;9.73;2.40;;;;;;;;;;5089284;28;20464;-78
2023/01/12 05:18:53;;;;;;;7.30;2.45;;;;;;;;;;5089186;28;20504;-78
2023/01/12 05:21:20;;;;;;;10.10;2.83;;;;;;;;;;5089113;28;20500;-78
2023/01/12 05:25:05;;;;;;;5.40;2.25;;;;;;;;;;5108789;27;20422;-76
2023/01/12 05:27:31;;;;;;;7.30;2.78;;;;;;;;;;5087270;28;20402;-76
2023/01/12 05:29:58;;;;;;;8.02;2.42;;;;;;;;;;5120930;27;20458;-76
2023/01/12 05:32:25;;;;;;;6.43;2.53;;;;;;;;;;5068653;28;20903;-76
2023/01/12 05:34:51;;;;;;;7.80;2.20;;;;;;;;;;5086102;28;20521;-76
2023/01/12 05:37:17;;;;;;;6.32;2.38;;;;;;;;;;5084725;28;20795;-76
2023/01/12 05:39:43;;;;;;;8.25;2.90;;;;;;;;;;5071005;28;20415;-76
2023/01/12 05:44:29;;;;;;;5.20;2.15;;;;;;;;;;5097310;27;1961716;-77
2023/01/12 05:46:55;;;;;;;8.95;2.40;;;;;;;;;;5125793;27;20447;-77
2023/01/12 05:49:21;;;;;;;5.53;2.17;;;;;;;;;;5115679;28;20419;-77
2023/01/12 05:51:47;;;;;;;5.47;2.37;;;;;;;;;;5096570;28;20446;-77
2023/01/12 05:54:13;;;;;;;8.40;2.45;;;;;;;;;;5091257;28;20408;-77
2023/01/12 05:56:40;;;;;;;5.28;2.30;;;;;;;;;;5074165;28;20931;-77
2023/01/12 05:59:06;;;;;;;7.63;2.47;;;;;;;;;;5094756;28;20751;-77
2023/01/12 06:01:32;;;;;;;5.75;2.10;;;;;;;;;;5072618;28;20447;-77
2023/01/12 06:04:00;;;;;;;7.45;2.50;;;;;;;;;;5090895;28;20432;-76
2023/01/12 06:06:30;;;;;;;6.68;2.40;;;8.40;99.90;;;;;;5102298;28;20489;-77
2023/01/12 06:08:56;;;;;;;6.13;2.30;;;;;;;;;;5125092;27;20420;-77
2023/01/12 06:14:07;;;;;;;6.70;2.15;;;;;;;;;;5101302;28;20421;-78
2023/01/12 06:16:36;;;;;;;4.43;1.70;;;;;;;;;;5110805;27;20475;-77
2023/01/12 06:19:02;;;;;;;4.88;1.60;;;;;;;;;;5131821;27;20390;-77
2023/01/12 06:21:28;;;;;;;4.20;1.50;;;;;;;;;;5081929;28;20439;-77
2023/01/12 06:23:54;;;;;;;4.00;1.70;;;;;;;;;;5090760;28;20417;-77
2023/01/12 06:26:20;;;;;;;4.68;1.50;;;;;;;;;;5092286;28;20421;-77
2023/01/12 06:28:46;;;;;;;4.15;1.50;;;;;;;;;;5087255;28;20462;-77
2023/01/12 06:31:13;;;;;;;3.20;1.50;;;;;;;;;;5066046;28;20409;-77
2023/01/12 06:33:39;;;;;;;3.15;1.55;;;;;;;;;;5060513;28;20412;-76
2023/01/12 06:36:05;;;;;;;4.63;1.77;;;;;;;;;;5073115;28;20769;-77
2023/01/12 06:38:33;;;;;;;6.63;1.95;;;;;;;;;;5065157;28;20415;-77
2023/01/12 06:41:03;;;;;;;10.57;2.45;;;;;;;;;;5094015;28;20419;-77
2023/01/12 06:43:30;;;;;;;5.32;2.17;;;;;;;;;;5087695;28;20429;-76
2023/01/12 06:45:56;;;;;;;8.00;2.63;;;;;;;;;;5054012;28;20901;-76
2023/01/12 06:48:24;;;;;;;14.27;3.20;;;;;;;;;;5086737;28;20803;-76
2023/01/12 06:50:52;;;;;;;7.70;2.73;;;;;;;;;;5071627;28;20410;-76
2023/01/12 06:53:18;;;;;;;8.88;2.30;;;;;;;;;;5089230;28;20429;-76
2023/01/12 06:55:48;;;;;;;9.98;2.40;;;;;;;;;;5076585;28;20797;-77
2023/01/12 06:58:14;;;;;;;6.82;2.25;;;;;;;;;;5075811;28;20450;-77
2023/01/12 07:00:41;;;;;;;6.45;2.50;;;;;;;;;;5076624;28;20758;-77
2023/01/12 07:03:07;;;;;;;6.65;2.75;;;;;;;;;;5083059;28;20424;-77
2023/01/12 07:05:33;;;;;;;8.38;3.05;;;;;;;;;;5096385;28;20400;-77
2023/01/12 07:07:59;;;;;;;10.23;2.92;;;;;;;;;;5081427;28;20901;-78
2023/01/12 07:10:26;;;;;;;13.00;3.60;;;;;;;;;;5065152;28;20498;-78
2023/01/12 07:12:52;;;;;;;9.60;3.88;;;;;;;;;;5053184;28;20418;-78
2023/01/12 07:15:18;;;;;;;11.48;4.07;;;;;;;;;;5074815;28;20405;-78
2023/01/12 07:17:46;;;;;;;11.88;4.20;;;;;;;;;;5074271;28;20410;-78
2023/01/12 07:20:12;;;;;;;14.18;4.05;;;;;;;;;;5086016;28;20418;-77
2023/01/12 07:22:38;;;;;;;15.07;4.60;;;;;;;;;;5073074;28;20429;-78
2023/01/12 07:25:05;;;;;;;14.48;4.05;;;;;;;;;;5112064;28;20412;-78
2023/01/12 07:27:31;;;;;;;15.43;5.23;;;;;;;;;;5072562;28;20423;-78
2023/01/12 07:29:57;;;;;;;17.50;4.63;;;;;;;;;;5081779;28;20444;-78
2023/01/12 07:32:25;;;;;;;17.90;5.03;;;;;;;;;;5060702;28;20783;-78
2023/01/12 07:34:51;;;;;;;16.10;5.05;;;;;;;;;;5091600;28;20939;-78
2023/01/12 07:37:17;;;;;;;24.90;5.57;;;;;;;;;;5059197;28;20457;-78
2023/01/12 07:39:44;;;;;;;25.30;5.60;;;;;;;;;;5079423;28;20440;-78
2023/01/12 07:42:25;;;;;;;22.55;4.53;;;;;;;;;;5062223;28;20891;-78
2023/01/12 07:44:51;;;;;;;24.70;4.93;;;;;;;;;;5064831;28;20471;-78
2023/01/12 07:47:17;;;;;;;22.60;5.13;;;;;;;;;;5084553;28;20410;-78
2023/01/12 07:49:43;;;;;;;25.17;5.18;;;;;;;;;;5087464;28;20452;-77
2023/01/12 07:52:12;;;;;;;26.75;5.38;;;;;;;;;;5056928;28;20423;-77
2023/01/12 07:54:39;;;;;;;27.48;6.28;;;;;;;;;;5090345;28;20415;-77
2023/01/12 07:57:08;;;;;;;25.98;5.53;;;;;;;;;;5078725;28;20416;-76
2023/01/12 07:59:34;;;;;;;26.35;5.80;;;;;;;;;;5090949;28;20413;-76
2023/01/12 08:02:00;;;;;;;31.33;6.32;;;;;;;;;;5039662;28;20463;-76
2023/01/12 08:04:26;;;;;;;32.15;6.80;;;;;;;;;;5074558;28;20408;-76
2023/01/12 08:06:52;;;;;;;32.42;6.78;;;;;;;;;;5046576;28;20493;-76
2023/01/12 08:09:18;;;;;;;28.27;5.88;;;;;;;;;;5050407;28;20922;-77
2023/01/12 08:11:45;;;;;;;36.13;6.40;;;;;;;;;;5067977;28;20426;-77
2023/01/12 08:14:13;;;;;;;35.42;5.70;;;;;;;;;;5076052;28;20427;-77
2023/01/12 08:16:42;;;;;;;32.65;6.50;;;;;;;;;;5090195;28;20416;-77
2023/01/12 08:19:17;;;;;;;29.90;5.20;;;9.60;99.90;;;;;;5087137;28;22424;-77
2023/01/12 08:21:49;;;;;;;31.77;5.73;;;;;;;;;;5088047;28;20415;-77
2023/01/12 08:24:19;;;;;;;36.40;6.07;;;;;;;;;;5088004;28;20417;-76
2023/01/12 08:26:46;;;;;;;31.63;5.25;;;;;;;;;;5072276;28;20422;-77
2023/01/12 08:29:15;;;;;;;23.63;5.00;;;;;;;;;;5072161;28;20440;-77
2023/01/12 08:31:42;;;;;;;34.75;5.78;;;;;;;;;;5073661;28;20406;-77
2023/01/12 08:34:09;;;;;;;26.25;5.65;;;;;;;;;;5067156;28;20421;-77
2023/01/12 08:36:35;;;;;;;26.98;4.78;;;;;;;;;;5077304;28;20783;-76
2023/01/12 08:39:03;;;;;;;24.42;4.97;;;;;;;;;;5082215;28;20420;-77
2023/01/12 08:41:32;;;;;;;27.33;5.15;;;;;;;;;;5070802;28;20459;-77
2023/01/12 08:44:02;;;;;;;29.20;5.10;;;;;;;;;;5086977;28;20420;-77
2023/01/12 08:46:33;;;;;;;27.70;4.77;;;;;;;;;;5073797;28;20431;-77
2023/01/12 08:48:59;;;;;;;27.17;5.30;;;;;;;;;;5093456;28;20457;-77
2023/01/12 08:51:26;;;;;;;37.60;5.65;;;;;;;;;;5075222;28;20861;-77
2023/01/12 08:53:52;;;;;;;23.25;4.88;;;;;;;;;;5092301;28;20416;-77
2023/01/12 08:56:18;;;;;;;24.52;5.20;;;;;;;;;;5092129;28;20493;-77
2023/01/12 08:58:44;;;;;;;28.05;5.63;;;;;;;;;;5060780;28;20497;-77
2023/01/12 09:01:12;;;;;;;25.47;5.00;;;;;;;;;;5069825;28;20416;-77
2023/01/12 09:03:38;;;;;;;25.73;4.77;;;;;;;;;;5080041;28;20515;-77
2023/01/12 09:06:25;;;;;;;28.38;4.85;;;10.90;99.90;;;;;;5059423;28;20414;-77
2023/01/12 09:08:58;;;;;;;29.55;5.60;;;;;;;;;;5070829;28;20451;-77
2023/01/12 09:11:28;;;;;;;22.25;4.20;;;10.30;99.90;;;;;;5083755;28;20422;-77
2023/01/12 09:13:55;;;;;;;25.73;4.93;;;;;;;;;;5065421;28;20438;-77
2023/01/12 09:16:21;;;;;;;28.35;5.00;;;;;;;;;;5063159;28;20446;-77
2023/01/12 09:18:47;;;;;;;22.25;5.15;;;;;;;;;;5053780;28;20400;-76
2023/01/12 09:21:15;;;;;;;26.33;4.82;;;;;;;;;;5072352;28;20929;-77
2023/01/12 09:23:41;;;;;;;24.85;5.13;;;;;;;;;;5082193;28;20414;-77
2023/01/12 09:26:19;;;;;;;23.58;4.30;;;10.50;99.90;;;;;;5077341;28;20480;-76
2023/01/12 09:28:45;;;;;;;21.38;4.53;;;;;;;;;;5055948;28;20804;-77
2023/01/12 09:31:16;;;;;;;20.42;4.72;;;;;;;;;;5069964;28;20424;-76
2023/01/12 09:33:42;;;;;;;18.70;3.80;;;;;;;;;;5080473;28;20418;-76
2023/01/12 09:36:12;;;;;;;25.17;4.75;;;;;;;;;;5067063;28;20771;-77
2023/01/12 09:38:39;;;;;;;24.30;5.18;;;;;;;;;;5053757;28;20399;-76
2023/01/12 09:41:10;;;;;;;27.30;4.82;;;;;;;;;;5046290;28;20830;-77
2023/01/12 09:49:17;;;;;;;20.73;4.45;;;;;;;;;;5071348;28;20463;-76
2023/01/12 09:51:59;;;;;;;21.10;4.40;;;;;;;;;;5055955;28;20417;-76
2023/01/12 09:54:25;;;;;;;24.60;5.28;;;;;;;;;;5072904;28;20406;-76
2023/01/12 09:57:01;;;;;;;23.10;4.27;;;;;;;;;;5072785;28;20448;-77
2023/01/12 09:59:36;;;;;;;21.03;5.23;;;;;;;;;;5073016;28;20505;-76
2023/01/12 10:02:02;;;;;;;22.73;4.53;;;;;;;;;;5074477;28;20499;-76
2023/01/12 10:04:28;;;;;;;24.58;4.80;;;;;;;;;;5040890;28;20420;-77
2023/01/12 10:06:54;;;;;;;22.67;4.68;;;;;;;;;;5087516;28;20408;-77
2023/01/12 10:09:21;;;;;;;27.13;5.15;;;;;;;;;;5057292;28;20420;-77
2023/01/12 10:11:50;;;;;;;22.70;4.32;;;;;;;;;;5075044;28;20416;-77
2023/01/12 10:14:22;;;;;;;20.63;4.57;;;;;;;;;;5077878;28;20420;-77
2023/01/12 10:17:04;;;;;;;23.67;4.93;;;;;;;;;;5073122;28;20417;-78
2023/01/12 10:19:32;;;;;;;25.15;4.53;;;;;;;;;;5069689;28;20418;-78
2023/01/12 10:22:02;;;;;;;24.08;4.13;;;11.60;99.90;;;;;;5074585;28;20450;-77
2023/01/12 10:24:29;;;;;;;22.35;4.22;;;;;;;;;;5070195;28;20432;-77
2023/01/12 10:27:01;;;;;;;23.80;4.38;;;;;;;;;;5055218;28;20418;-78
2023/01/12 10:29:29;;;;;;;20.67;4.10;;;11.10;99.90;;;;;;5073916;28;20474;-78
2023/01/12 10:31:55;;;;;;;16.88;3.97;;;;;;;;;;5042164;28;20412;-77
2023/01/12 10:34:21;;;;;;;19.08;3.50;;;;;;;;;;5051062;28;20415;-77
2023/01/12 10:36:48;;;;;;;21.42;3.95;;;11.40;99.90;;;;;;5074325;28;20425;-77
2023/01/12 10:39:33;;;;;;;18.90;4.10;;;;;;;;;;5074225;28;20455;-77
2023/01/12 10:45:12;;;;;;;23.63;4.55;;;;;;;;;;5076500;28;20398;-78
2023/01/12 10:47:39;;;;;;;22.05;4.40;;;;;;;;;;5082356;28;20416;-77
2023/01/12 10:50:22;;;;;;;22.42;3.85;;;;;;;;;;5052738;28;20420;-77
2023/01/12 10:52:52;;;;;;;23.40;4.45;;;;;;;;;;5073475;28;20416;-77
2023/01/12 10:55:20;;;;;;;19.65;4.25;;;11.20;99.90;;;;;;5075619;28;20579;-78
2023/01/12 10:57:47;;;;;;;19.17;3.72;;;11.20;99.90;;;;;;5086877;28;20918;-78
2023/01/12 11:00:24;;;;;;;20.85;4.00;;;;;;;;;;5065450;28;20537;-78
2023/01/12 11:02:50;;;;;;;20.58;4.38;;;;;;;;;;5072108;28;20416;-78
2023/01/12 11:05:35;;;;;;;21.00;4.32;;;;;;;;;;5072533;28;20412;-78
2023/01/12 11:08:02;;;;;;;20.93;4.20;;;;;;;;;;5083289;28;20417;-78
2023/01/12 11:10:35;;;;;;;18.67;3.67;;;;;;;;;;5075174;28;20412;-78
2023/01/12 11:13:03;;;;;;;21.73;4.05;;;11.40;99.90;;;;;;5085095;28;20423;-78
2023/01/12 11:15:31;;;;;;;23.38;4.30;;;;;;;;;;5066132;28;21470;-78
2023/01/12 11:18:33;;;;;;;19.08;3.67;;;11.40;99.90;;;;;;5079486;28;20422;-78
2023/01/12 11:21:05;;;;;;;18.10;4.43;;;11.40;99.90;;;;;;5074839;28;20447;-78
2023/01/12 11:23:35;;;;;;;19.20;3.80;;;;;;;;;;5074624;28;20422;-78
2023/01/12 11:26:02;;;;;;;23.07;4.30;;;;;;;;;;5082058;28;20420;-78
2023/01/12 11:28:37;;;;;;;21.98;4.57;;;;;;;;;;5093291;28;20392;-78
2023/01/12 11:31:06;;;;;;;17.93;3.90;;;;;;;;;;5057766;28;20490;-78
2023/01/12 11:33:50;;;;;;;16.08;3.55;;;;;;;;;;5066910;28;20425;-78
2023/01/12 11:36:38;;;;;;;22.80;4.37;;;;;;;;;;5075387;28;20461;-78
2023/01/12 11:39:11;;;;;;;16.40;4.10;;;11.80;99.90;;;;;;5075475;28;20917;-78
2023/01/12 11:45:09;;;;;;;16.33;3.40;;;12.00;99.90;;;;;;5063307;28;20500;-77
2023/01/12 11:47:37;;;;;;;15.23;3.45;;;;;;;;;;5073178;28;20471;-77
2023/01/12 11:50:06;;;;;;;13.88;3.65;;;;;;;;;;5063984;28;20414;-79
2023/01/12 11:52:33;;;;;;;20.00;3.73;;;;;;;;;;5075003;28;20944;-79
2023/01/12 11:55:00;;;;;;;16.00;3.40;;;;;;;;;;5049378;28;20414;-79
2023/01/12 11:57:29;;;;;;;15.02;3.55;;;;;;;;;;5086785;28;20486;-79
2023/01/12 12:00:01;;;;;;;14.65;3.33;;;;;;;;;;5057222;28;20422;-79
2023/01/12 12:02:31;;;;;;;15.20;3.45;;;;;;;;;;5053549;28;20406;-78
2023/01/12 12:05:03;;;;;;;15.03;3.17;;;;;;;;;;5071472;28;20424;-78
2023/01/12 12:08:12;;;;;;;17.60;3.55;;;11.70;99.90;;;;;;5084141;28;20419;-78
2023/01/12 12:10:41;;;;;;;16.80;3.75;;;;;;;;;;5063144;28;20407;-78
2023/01/12 12:13:07;;;;;;;14.82;3.58;;;;;;;;;;5072999;28;20479;-79
2023/01/12 12:15:41;;;;;;;15.90;3.65;;;11.70;99.90;;;;;;5077033;28;20421;-78
2023/01/12 12:18:30;;;;;;;16.55;3.30;;;;;;;;;;5078688;28;20443;-79
2023/01/12 12:21:40;;;;;;;18.07;3.73;;;11.60;99.90;;;;;;5052357;28;20532;-78
2023/01/12 12:24:24;;;;;;;16.77;3.60;;;;;;;;;;5054418;28;20907;-79
2023/01/12 12:27:16;;;;;;;20.57;3.63;;;12.00;99.90;;;;;;5071281;28;20445;-79
2023/01/12 12:30:13;;;;;;;18.52;3.95;;;11.90;99.90;;;;;;5049910;28;20410;-76
2023/01/12 12:32:39;;;;;;;16.80;3.35;;;;;;;;;;5052775;28;20950;-79
2023/01/12 12:35:14;;;;;;;19.35;3.78;;;;;;;;;;5071282;28;20753;-79
2023/01/12 12:37:43;;;;;;;20.13;4.10;;;;;;;;;;5074140;28;20495;-79
2023/01/12 12:46:40;;;;;;;20.17;3.95;;;;;;;;;;5055610;28;20419;-79
2023/01/12 12:49:12;;;;;;;20.58;3.35;;;;;;;;;;5085780;28;20406;-79
2023/01/12 12:51:39;;;;;;;17.10;3.92;;;;;;;;;;5059007;28;20430;-79
2023/01/12 12:54:06;;;;;;;13.05;3.03;;;;;;;;;;5049605;28;20415;-79
2023/01/12 12:56:35;;;;;;;18.08;3.38;;;;;;;;;;5056771;28;20449;-79
2023/01/12 12:59:01;;;;;;;17.80;3.90;;;;;;;;;;5072224;28;20438;-79
2023/01/12 13:01:27;;;;;;;19.00;4.03;;;;;;;;;;5064476;28;20456;-79
2023/01/12 13:03:55;;;;;;;19.80;4.18;;;;;;;;;;5050554;28;20450;-79
2023/01/12 13:06:36;;;;;;;17.55;3.72;;;;;;;;;;5062367;28;20424;-79
2023/01/12 13:09:11;;;;;;;20.70;4.47;;;;;;;;;;5055654;28;20467;-80
2023/01/12 13:11:52;;;;;;;23.60;4.35;;;;;;;;;;5066286;28;20445;-79
2023/01/12 13:14:18;;;;;;;19.48;4.45;;;;;;;;;;5064719;28;20450;-79
2023/01/12 13:16:47;;;;;;;23.75;4.50;;;11.70;99.90;;;;;;5070306;28;20442;-79
2023/01/12 13:19:31;;;;;;;23.80;4.75;;;;;;;;;;5059404;28;20510;-79
2023/01/12 13:22:15;;;;;;;19.63;4.73;;;11.70;99.90;;;;;;5062214;28;20610;-79
2023/01/12 13:24:41;;;;;;;22.08;4.55;;;;;;;;;;5059971;28;20425;-79
2023/01/12 13:27:26;;;;;;;23.30;4.67;;;;;;;;;;5048253;28;20463;-79
2023/01/12 13:30:27;;;;;;;27.90;5.20;;;11.70;99.90;;;;;;5047408;28;20419;-79
2023/01/12 13:33:00;;;;;;;24.42;4.80;;;;;;;;;;5069601;28;20952;-78
2023/01/12 13:35:27;;;;;;;25.25;4.45;;;;;;;;;;5067771;28;20473;-79
2023/01/12 13:37:56;;;;;;;23.98;4.85;;;;;;;;;;5046304;28;20427;-80
2023/01/12 13:40:27;;;;;;;21.73;4.57;;;;;;;;;;5056133;28;20429;-79
2023/01/12 13:43:15;;;;;;;26.38;4.63;;;11.60;99.90;;;;;;5063597;28;20419;-80
2023/01/12 13:45:53;;;;;;;20.75;4.85;;;;;;;;;;5067040;28;20420;-79
2023/01/12 13:48:20;;;;;;;23.70;4.78;;;11.70;99.90;;;;;;5049609;28;20412;-80
2023/01/12 13:50:47;;;;;;;25.95;5.25;;;;;;;;;;5033752;28;20496;-79
2023/01/12 13:53:24;;;;;;;23.33;4.85;;;;;;;;;;5060435;28;20419;-79
2023/01/12 13:56:01;;;;;;;25.33;5.05;;;;;;;;;;5048095;28;20418;-78
2023/01/12 13:58:28;;;;;;;25.67;5.15;;;;;;;;;;5066521;28;20431;-79
2023/01/12 14:00:59;;;;;;;24.65;5.32;;;11.80;99.90;;;;;;5039421;28;20550;-79
2023/01/12 14:03:56;;;;;;;26.73;5.47;;;11.60;99.90;;;;;;5041697;28;20428;-78
2023/01/12 14:06:36;;;;;;;28.23;5.53;;;11.40;99.90;;;;;;5065202;28;20424;-78
2023/01/12 14:09:07;;;;;;;23.50;5.55;;;;;;;;;;5077617;28;20907;-78
2023/01/12 14:11:40;;;;;;;29.83;6.20;;;;;;;;;;5055804;28;21062;-77
2023/01/12 14:20:13;;;;;;;34.28;7.80;;;;;;;;;;5080791;28;20424;-78
2023/01/12 14:22:39;;;;;;;29.63;6.32;;;;;;;;;;5072167;28;20415;-79
2023/01/12 14:25:19;;;;;;;29.83;6.43;;;;;;;;;;5071116;28;20506;-79
2023/01/12 14:27:53;;;;;;;26.27;5.90;;;11.30;99.90;;;;;;5071731;28;20476;-78
2023/01/12 14:30:22;;;;;;;26.05;5.63;;;11.10;99.90;;;;;;5070012;28;20421;-78
2023/01/12 14:32:49;;;;;;;22.48;5.03;;;;;;;;;;5068163;28;20430;-78
2023/01/12 14:35:19;;;;;;;25.42;4.88;;;;;;;;;;5058216;28;20920;-78
2023/01/12 14:37:57;;;;;;;21.92;5.13;;;11.10;99.90;;;;;;5074628;28;20931;-78
2023/01/12 14:40:28;;;;;;;17.73;4.10;;;10.60;99.90;;;;;;5078403;28;20636;-78
2023/01/12 14:48:42;;;;;;;25.05;4.65;;;;;;;;;;5064911;28;20431;-77
2023/01/12 14:51:24;;;;;;;13.97;3.33;;;10.90;99.90;;;;;;5059189;28;20421;-77
2023/01/12 14:53:56;;;;;;;11.18;3.13;;;;;;;;;;5071796;28;20555;-78
2023/01/12 14:56:23;;;;;;;12.32;3.70;;;;;;;;;;5072440;28;20458;-78
2023/01/12 14:58:49;;;;;;;10.25;3.28;;;;;;;;;;5071209;28;20427;-78
2023/01/12 15:01:35;;;;;;;9.30;2.92;;;;;;;;;;5030296;28;20505;-78
2023/01/12 15:04:02;;;;;;;9.27;2.70;;;;;;;;;;5048579;28;20419;-78
2023/01/12 15:06:28;;;;;;;6.65;2.22;;;;;;;;;;5062715;28;20446;-78
2023/01/12 15:08:56;;;;;;;9.32;2.53;;;;;;;;;;5062944;28;20411;-79
2023/01/12 15:11:34;;;;;;;7.63;2.30;;;10.90;99.90;;;;;;5071212;28;20424;-78
2023/01/12 15:14:00;;;;;;;8.73;2.83;;;;;;;;;;5073125;28;20426;-77
2023/01/12 15:27:27;;;;;;;7.72;3.15;;;;;;;;;;5067938;28;20423;-81
2023/01/12 15:29:56;;;;;;;6.70;2.80;;;;;;;;;;5083181;28;20425;-81
2023/01/12 15:32:22;;;;;;;8.20;3.28;;;;;;;;;;5088702;28;20414;-82
2023/01/12 15:34:48;;;;;;;7.93;3.60;;;;;;;;;;5082506;28;20437;-81
2023/01/12 15:37:16;;;;;;;11.18;4.38;;;;;;;;;;5086649;28;20425;-81